Time;durP1;ratioP1;P1;durP2;ratioP2;P2;SDS_P1;SDS_P2;PMS_P1;PMS_P2;Temp;Humidity;BMP_temperature;BMP_pressure;BME280_temperature;BME280_humidity;BME280_pressure;Samples;Min_cycle;Max_cycle;Signal;HPM_P1;HPM_P2
2022/02/09 00:05:00;;;;;;;12.23;6.90;;;9.40;39.60;;;;;;4956006;29;20389;-74
2022/02/09 00:07:45;;;;;;;9.57;5.30;;;9.40;39.70;;;;;;4956110;28;20038;-72
2022/02/09 00:10:11;;;;;;;11.25;7.38;;;9.50;39.80;;;;;;4955976;29;20586;-74
2022/02/09 00:12:50;;;;;;;13.10;7.22;;;9.50;40.00;;;;;;4955138;28;20035;-75
2022/02/09 00:58:38;;;;;;;10.23;5.93;;;9.60;40.00;;;;;;4955379;28;20093;-73
2022/02/09 01:56:38;;;;;;;;;;;8.60;41.30;;;;;;4954701;29;20094;-72
2022/02/09 01:59:05;;;;;;;13.25;8.40;;;8.60;40.40;;;;;;4954320;29;19914;-72
2022/02/09 02:01:31;;;;;;;12.85;8.50;;;8.50;40.10;;;;;;4954203;29;20077;-69
2022/02/09 02:03:57;;;;;;;12.02;7.63;;;8.60;40.70;;;;;;4954327;29;20031;-68
2022/02/09 02:06:23;;;;;;;14.02;7.97;;;8.60;40.30;;;;;;4954394;28;20031;-72
2022/02/09 02:08:51;;;;;;;11.85;8.10;;;8.60;40.40;;;;;;4954242;28;20031;-69
2022/02/09 02:11:29;;;;;;;12.75;7.60;;;8.50;40.50;;;;;;4954230;29;20038;-68
2022/02/09 02:16:48;;;;;;;14.05;9.02;;;8.40;41.80;;;;;;4954323;29;20522;-68
2022/02/09 02:19:29;;;;;;;14.88;8.90;;;8.30;40.80;;;;;;4954207;29;20090;-68
2022/02/09 03:15:10;;;;;;;10.35;6.43;;;8.30;41.60;;;;;;4956755;28;20035;-68
2022/02/09 03:17:40;;;;;;;9.90;6.97;;;8.30;40.60;;;;;;4956553;29;20023;-68
2022/02/09 03:23:17;;;;;;;12.00;6.70;;;8.30;41.60;;;;;;4956568;28;20039;-68
2022/02/09 03:54:37;;;;;;;13.82;8.48;;;7.80;42.40;;;;;;4956223;28;19996;-69
2022/02/09 03:57:10;;;;;;;13.48;9.07;;;7.70;42.00;;;;;;4956082;29;20074;-69
2022/02/09 03:59:36;;;;;;;15.63;8.82;;;7.70;42.60;;;;;;4955840;29;20027;-68
2022/02/09 04:02:05;;;;;;;13.30;8.70;;;7.60;42.50;;;;;;4955851;29;20034;-68
2022/02/09 04:04:31;;;;;;;15.00;8.95;;;7.60;43.80;;;;;;4955925;28;20019;-69
2022/02/09 04:06:57;;;;;;;17.02;9.15;;;7.60;42.80;;;;;;4955811;28;20031;-69
2022/02/09 04:09:28;;;;;;;13.70;8.75;;;7.60;42.60;;;;;;4955632;28;20189;-68
2022/02/09 04:12:17;;;;;;;14.20;8.75;;;7.50;42.50;;;;;;4938308;29;20440;-68
2022/02/09 04:14:55;;;;;;;13.68;8.38;;;7.50;43.60;;;;;;4955614;29;20023;-68
2022/02/09 04:17:34;;;;;;;13.90;8.45;;;7.50;43.40;;;;;;4938340;29;20028;-67
2022/02/09 04:39:07;;;;;;;14.98;8.55;;;7.60;43.00;;;;;;4955061;28;20424;-69
2022/02/09 04:47:23;;;;;;;15.32;9.05;;;7.60;43.20;;;;;;4955311;28;20093;-68
2022/02/09 04:50:08;;;;;;;14.32;8.90;;;7.50;43.80;;;;;;4955006;28;20105;-69
2022/02/09 04:58:18;;;;;;;15.52;8.82;;;7.50;43.60;;;;;;4955131;28;20086;-73
2022/02/09 05:01:01;;;;;;;15.10;8.32;;;7.50;43.70;;;;;;4939782;29;20058;-75
2022/02/09 05:27:37;;;;;;;58.20;11.95;;;7.50;45.00;;;;;;4954688;29;20035;-75
2022/02/09 05:30:07;;;;;;;40.58;10.68;;;7.50;45.20;;;;;;4937531;28;20028;-76
2022/02/09 05:32:33;;;;;;;47.03;11.85;;;7.50;45.40;;;;;;4955126;28;20384;-74
2022/02/09 05:34:59;;;;;;;25.40;10.02;;;7.50;45.50;;;;;;4937520;29;20130;-74
2022/02/09 05:37:24;;;;;;;21.50;9.02;;;7.50;45.40;;;;;;4954781;29;20093;-72
2022/02/09 05:39:52;;;;;;;21.23;10.60;;;7.50;45.70;;;;;;4937579;29;20035;-75
2022/02/09 05:42:17;;;;;;;15.40;9.07;;;7.50;46.10;;;;;;4954636;28;20034;-74
2022/02/09 05:44:44;;;;;;;20.08;8.95;;;7.50;45.90;;;;;;4954760;29;20031;-76
2022/02/09 05:49:44;;;;;;;16.85;8.88;;;7.50;46.50;;;;;;4937539;29;20051;-74
2022/02/09 05:52:25;;;;;;;12.48;8.00;;;7.50;46.50;;;;;;4954435;29;20086;-75
2022/02/09 05:59:48;;;;;;;18.77;10.13;;;7.50;46.80;;;;;;4954478;28;20035;-76
2022/02/09 06:02:19;;;;;;;20.85;10.73;;;7.40;46.90;;;;;;4954482;28;20028;-72
2022/02/09 06:04:45;;;;;;;23.60;11.45;;;7.20;46.70;;;;;;4922984;29;20473;-74
2022/02/09 06:07:16;;;;;;;19.27;10.35;;;7.10;47.40;;;;;;4954932;28;20027;-75
2022/02/09 06:09:42;;;;;;;19.77;10.20;;;7.00;47.20;;;;;;4954703;28;20058;-76
2022/02/09 06:12:18;;;;;;;19.13;10.93;;;6.90;47.30;;;;;;4958150;29;20501;-74
2022/02/09 06:15:13;;;;;;;16.65;11.07;;;6.90;47.60;;;;;;4958081;29;20476;-75
2022/02/09 06:20:17;;;;;;;27.02;11.82;;;6.80;47.90;;;;;;4958722;28;20074;-74
2022/02/09 06:22:43;;;;;;;20.50;11.35;;;6.80;48.00;;;;;;4958269;29;20059;-75
2022/02/09 06:25:10;;;;;;;19.35;10.88;;;6.70;47.90;;;;;;4958519;28;20070;-76
2022/02/09 06:27:35;;;;;;;21.42;11.32;;;6.70;48.10;;;;;;4958465;29;20038;-74
2022/02/09 06:30:01;;;;;;;24.38;10.27;;;6.60;48.20;;;;;;4958374;29;20028;-77
2022/02/09 06:32:28;;;;;;;23.30;10.60;;;6.50;48.60;;;;;;4940848;28;20125;-73
2022/02/09 06:34:54;;;;;;;18.88;11.18;;;6.50;48.60;;;;;;4957808;29;20026;-76
2022/02/09 06:37:41;;;;;;;20.13;11.43;;;6.60;48.60;;;;;;4958056;28;20039;-75
2022/02/09 06:40:08;;;;;;;18.52;10.65;;;6.60;48.50;;;;;;4958120;28;20083;-73
2022/02/09 06:42:35;;;;;;;17.90;10.73;;;6.60;48.50;;;;;;4957601;28;20028;-68
2022/02/09 06:45:10;;;;;;;18.08;10.10;;;6.50;48.60;;;;;;4957850;29;20117;-70
2022/02/09 06:47:37;;;;;;;18.38;10.82;;;6.60;48.70;;;;;;4942184;29;20020;-75
2022/02/09 06:50:08;;;;;;;20.17;10.93;;;6.70;48.80;;;;;;4958525;28;20103;-75
2022/02/09 06:52:38;;;;;;;19.52;11.02;;;6.70;48.70;;;;;;4961351;29;20066;-78
2022/02/09 07:00:18;;;;;;;21.20;11.25;;;6.90;49.20;;;;;;4957492;28;20441;-69
2022/02/09 07:02:45;;;;;;;17.92;11.00;;;6.90;48.70;;;;;;4957183;29;20079;-69
2022/02/09 07:05:11;;;;;;;23.25;13.30;;;7.10;49.00;;;;;;4957326;28;20012;-72
2022/02/09 07:07:39;;;;;;;22.27;10.25;;;7.20;48.60;;;;;;4956817;29;20038;-69
2022/02/09 07:10:05;;;;;;;18.17;10.73;;;7.40;48.60;;;;;;4940306;29;20031;-69
2022/02/09 07:12:33;;;;;;;20.83;9.70;;;7.60;48.30;;;;;;4957157;29;20042;-71
2022/02/09 07:14:58;;;;;;;20.27;10.77;;;7.70;47.90;;;;;;4956535;29;20023;-73
2022/02/09 07:17:24;;;;;;;18.35;10.05;;;7.90;47.90;;;;;;4956901;29;20054;-67
2022/02/09 07:20:05;;;;;;;21.70;10.40;;;8.00;47.60;;;;;;4939321;29;20023;-72
2022/02/09 07:22:36;;;;;;;26.30;10.00;;;8.10;47.30;;;;;;4940985;29;20027;-74
2022/02/09 07:25:11;;;;;;;21.83;9.82;;;8.30;47.20;;;;;;4954391;28;20039;-74
2022/02/09 07:27:55;;;;;;;22.63;11.18;;;8.40;46.70;;;;;;4956244;28;20031;-78
2022/02/09 07:30:24;;;;;;;16.45;9.38;;;8.60;46.50;;;;;;4924212;29;20035;-78
2022/02/09 07:32:55;;;;;;;23.52;10.48;;;8.70;46.10;;;;;;4956992;29;20491;-82
2022/02/09 07:35:22;;;;;;;23.60;10.63;;;8.70;46.10;;;;;;4939606;29;20045;-78
2022/02/09 07:37:50;;;;;;;26.52;10.80;;;8.90;45.70;;;;;;4956806;29;20027;-78
2022/02/09 07:40:18;;;;;;;25.42;9.77;;;8.90;45.00;;;;;;4956445;29;20166;-77
2022/02/09 07:42:56;;;;;;;16.30;9.52;;;8.90;45.00;;;;;;4956150;28;20452;-76
2022/02/09 07:50:42;;;;;;;21.00;9.43;;;8.90;44.70;;;;;;4955929;28;20567;-81
2022/02/09 07:55:35;;;;;;;19.95;9.40;;;8.80;43.60;;;;;;4956813;28;20032;-79
2022/02/09 07:58:26;;;;;;;25.92;8.88;;;8.90;43.10;;;;;;4941987;29;20042;-81
2022/02/09 08:00:54;;;;;;;21.73;9.30;;;9.00;44.60;;;;;;4955815;29;20027;-79
2022/02/09 08:03:25;;;;;;;22.10;9.68;;;9.10;44.50;;;;;;4956058;28;20082;-78
2022/02/09 08:05:50;;;;;;;16.30;9.65;;;9.20;43.00;;;;;;4956081;28;20057;-74
2022/02/09 08:08:29;;;;;;;18.42;10.05;;;9.30;43.10;;;;;;4953825;29;20115;-67
2022/02/09 08:10:58;;;;;;;20.52;10.63;;;9.30;42.80;;;;;;4955579;28;20114;-67
2022/02/09 08:27:23;;;;;;;15.95;7.70;;;9.20;43.30;;;;;;4952112;28;20488;-81
2022/02/09 08:32:36;;;;;;;22.67;9.45;;;9.20;41.50;;;;;;4938172;29;20066;-77
2022/02/09 08:35:09;;;;;;;20.92;9.27;;;9.20;42.80;;;;;;4954711;28;20023;-72
2022/02/09 08:37:36;;;;;;;14.88;9.30;;;9.30;42.00;;;;;;4955641;29;20427;-81
2022/02/09 08:40:11;;;;;;;17.95;9.23;;;9.20;42.80;;;;;;4939085;29;20019;-78
2022/02/09 08:42:42;;;;;;;19.02;9.10;;;9.20;41.70;;;;;;4938283;29;20098;-82
2022/02/09 08:45:09;;;;;;;17.38;8.50;;;9.20;43.40;;;;;;4955587;28;20024;-76
2022/02/09 08:47:37;;;;;;;18.33;8.40;;;9.30;42.20;;;;;;4937547;29;20031;-70
2022/02/09 08:50:04;;;;;;;17.23;8.63;;;9.30;41.90;;;;;;4924860;29;20063;-68
2022/02/09 08:52:30;;;;;;;14.77;8.55;;;9.30;41.50;;;;;;4935703;29;20109;-69
2022/02/09 08:54:56;;;;;;;15.15;8.50;;;9.30;41.40;;;;;;4935913;29;20028;-72
2022/02/09 08:57:22;;;;;;;18.65;9.20;;;9.40;41.60;;;;;;4935705;29;20020;-67
2022/02/09 08:59:50;;;;;;;14.80;8.52;;;9.40;41.40;;;;;;4935821;29;20026;-67
2022/02/09 09:02:19;;;;;;;16.83;8.55;;;9.50;41.60;;;;;;4935970;29;20119;-69
2022/02/09 09:04:53;;;;;;;19.52;8.10;;;9.50;41.50;;;;;;4936014;29;20119;-70
2022/02/09 09:07:26;;;;;;;13.63;7.60;;;9.60;41.40;;;;;;4936525;29;20027;-70
2022/02/09 09:10:01;;;;;;;15.85;8.15;;;9.70;41.30;;;;;;4936888;29;20020;-66
2022/02/09 09:16:34;;;;;;;;;;;9.90;42.30;;;;;;4936999;29;20087;-67
2022/02/09 10:05:09;;;;;;;13.93;6.50;;;11.50;40.00;;;;;;4957647;28;20038;-68
2022/02/09 10:33:00;;;;;;;12.38;6.20;;;12.70;40.10;;;;;;4957238;28;20062;-67
2022/02/09 10:35:48;;;;;;;12.05;6.18;;;12.80;40.20;;;;;;4939984;29;20481;-67
2022/02/09 10:38:26;;;;;;;11.05;5.80;;;12.90;40.00;;;;;;4956851;29;20105;-68
2022/02/09 10:40:54;;;;;;;17.42;7.15;;;13.00;40.10;;;;;;4956878;28;20071;-70
2022/02/09 10:43:36;;;;;;;16.75;6.50;;;13.00;40.00;;;;;;4939528;29;20038;-68
2022/02/09 10:46:20;;;;;;;20.58;6.72;;;13.10;40.20;;;;;;4957023;29;20110;-72
2022/02/09 10:49:01;;;;;;;12.85;5.68;;;13.20;39.60;;;;;;4956725;28;20103;-68
2022/02/09 10:51:38;;;;;;;11.93;5.60;;;13.30;40.00;;;;;;4956488;29;20113;-67
2022/02/09 10:54:13;;;;;;;12.32;6.57;;;13.40;40.30;;;;;;4957916;28;20393;-68
2022/02/09 10:56:47;;;;;;;15.90;5.78;;;13.50;40.30;;;;;;4938554;28;20027;-68
2022/02/09 10:59:15;;;;;;;14.80;6.38;;;13.70;39.30;;;;;;4956095;29;20379;-69
2022/02/09 11:01:42;;;;;;;14.82;5.53;;;13.80;40.60;;;;;;4939661;29;20045;-69
2022/02/09 11:04:09;;;;;;;13.38;5.95;;;13.90;40.60;;;;;;4956628;29;20075;-72
2022/02/09 11:06:39;;;;;;;18.52;5.97;;;14.00;40.70;;;;;;4956871;28;20027;-68
2022/02/09 11:09:08;;;;;;;14.35;5.28;;;14.10;40.80;;;;;;4939461;29;20106;-67
2022/02/09 11:11:41;;;;;;;11.48;5.53;;;14.20;40.70;;;;;;4956881;28;20074;-70
2022/02/09 11:14:16;;;;;;;11.85;4.72;;;14.30;40.90;;;;;;4956610;29;20484;-70
2022/02/09 11:16:46;;;;;;;13.68;4.93;;;14.50;40.30;;;;;;4956800;29;20451;-71
2022/02/09 11:19:15;;;;;;;17.80;5.55;;;14.60;41.20;;;;;;4956557;29;20024;-68
2022/02/09 11:21:41;;;;;;;18.02;5.88;;;14.70;41.30;;;;;;4956351;28;20039;-68
2022/02/09 11:24:19;;;;;;;14.85;5.30;;;14.90;41.30;;;;;;4956119;29;20502;-70
2022/02/09 11:27:10;;;;;;;9.00;4.57;;;15.00;41.30;;;;;;4938744;29;20354;-70
2022/02/09 11:30:02;;;;;;;15.52;4.63;;;15.20;41.50;;;;;;4941232;29;20046;-70
2022/02/09 11:35:08;;;;;;;11.73;3.78;;;15.40;41.60;;;;;;4956246;28;20090;-67
2022/02/09 11:38:13;;;;;;;8.98;2.95;;;15.50;40.50;;;;;;4956099;28;20042;-67
2022/02/09 11:43:48;;;;;;;11.27;3.95;;;15.70;41.70;;;;;;4902959;29;20031;-71
2022/02/09 11:52:36;;;;;;;15.30;4.13;;;15.90;41.50;;;;;;4878513;29;20108;-70
2022/02/09 12:12:11;;;;;;;13.57;4.10;;;16.60;40.60;;;;;;4925907;29;20055;-68
2022/02/09 12:20:30;;;;;;;15.80;6.35;;;16.70;40.10;;;;;;4955560;29;20043;-67
2022/02/09 12:25:49;;;;;;;12.10;5.43;;;16.90;42.10;;;;;;4955936;29;20047;-72
2022/02/09 12:28:19;;;;;;;11.82;4.28;;;17.00;40.50;;;;;;4937855;29;20162;-68
2022/02/09 12:30:45;;;;;;;13.52;4.68;;;17.00;41.60;;;;;;4955037;29;20050;-68
2022/02/09 12:33:22;;;;;;;15.57;5.53;;;17.00;41.60;;;;;;4955170;29;20033;-67
2022/02/09 12:35:49;;;;;;;16.25;5.82;;;17.10;41.80;;;;;;4955121;28;20173;-68
2022/02/09 12:38:14;;;;;;;14.43;4.80;;;17.10;41.60;;;;;;4954813;28;20090;-71
2022/02/09 12:40:40;;;;;;;15.27;5.25;;;17.20;41.30;;;;;;4954838;28;20031;-69
2022/02/09 12:43:12;;;;;;;16.48;5.55;;;17.20;41.50;;;;;;4954876;29;20420;-67
2022/02/09 12:45:38;;;;;;;10.95;4.13;;;17.30;41.40;;;;;;4954724;29;20019;-69
2022/02/09 12:48:07;;;;;;;11.32;4.60;;;17.30;41.30;;;;;;4954875;28;20031;-67
2022/02/09 12:50:40;;;;;;;14.27;5.43;;;17.40;41.20;;;;;;4954669;29;20054;-68
2022/02/09 12:53:08;;;;;;;16.30;5.43;;;17.40;41.20;;;;;;4954852;28;20098;-68
2022/02/09 12:55:36;;;;;;;12.48;4.10;;;17.50;41.20;;;;;;4955108;28;20023;-68
2022/02/09 12:58:12;;;;;;;11.45;4.07;;;17.50;40.70;;;;;;4938502;29;20055;-67
2022/02/09 13:00:57;;;;;;;13.40;4.13;;;17.50;40.40;;;;;;4956044;29;20034;-68
2022/02/09 13:03:23;;;;;;;10.93;4.20;;;17.60;40.10;;;;;;4954893;29;20136;-70
2022/02/09 13:05:57;;;;;;;13.05;4.05;;;17.70;39.60;;;;;;4937085;29;20074;-69
2022/02/09 13:08:28;;;;;;;15.25;4.57;;;17.70;39.80;;;;;;4954198;28;20078;-67
2022/02/09 13:11:17;;;;;;;11.20;4.47;;;17.70;40.00;;;;;;4954163;29;20384;-70
2022/02/09 13:13:49;;;;;;;13.80;4.45;;;17.70;40.30;;;;;;4937896;29;20130;-70
2022/02/09 13:16:35;;;;;;;11.90;3.80;;;17.80;39.50;;;;;;4954731;29;20059;-68
2022/02/09 14:50:35;;;;;;;11.90;4.10;;;18.60;37.50;;;;;;4959120;28;20047;-69
2022/02/09 14:53:38;;;;;;;13.40;3.58;;;18.60;37.50;;;;;;4957419;29;20059;-68
2022/02/09 14:58:31;;;;;;;10.20;3.60;;;18.40;37.10;;;;;;4878866;29;20137;-68
2022/02/09 15:01:09;;;;;;;14.73;4.82;;;18.30;37.20;;;;;;4942664;29;20070;-71
2022/02/09 15:24:13;;;;;;;9.85;3.55;;;18.20;36.60;;;;;;4958493;29;20082;-68
2022/02/09 15:26:39;;;;;;;11.15;3.85;;;18.10;37.10;;;;;;4957301;29;20037;-69
2022/02/09 15:29:25;;;;;;;12.50;4.53;;;18.10;36.80;;;;;;4955816;28;20039;-69
2022/02/09 15:31:55;;;;;;;12.38;4.60;;;18.00;36.60;;;;;;4956152;28;20126;-71
2022/02/09 15:34:35;;;;;;;9.90;3.92;;;18.00;37.00;;;;;;4956281;29;20132;-68
2022/02/09 15:39:48;;;;;;;13.77;4.57;;;17.90;36.90;;;;;;4956130;29;20364;-68
2022/02/09 16:22:39;;;;;;;13.13;4.38;;;16.90;38.70;;;;;;4935735;29;19930;-73
2022/02/09 16:46:26;;;;;;;15.55;6.30;;;16.10;39.80;;;;;;4937846;29;19938;-68
2022/02/09 16:51:33;;;;;;;13.60;5.50;;;16.00;41.30;;;;;;4955539;29;20409;-68
2022/02/09 16:54:23;;;;;;;15.43;5.70;;;15.90;41.70;;;;;;4955312;28;20138;-71
2022/02/09 17:19:03;;;;;;;17.50;5.70;;;15.10;49.90;;;;;;4984105;23;20426;-68
2022/02/09 17:24:27;;;;;;;21.90;7.07;;;15.00;51.60;;;;;;4955899;28;20029;-67
2022/02/09 17:27:06;;;;;;;;;;;;;;;;;;;;;
2022/02/09 17:32:59;;;;;;;15.18;6.25;;;14.90;52.70;;;;;;4962063;28;20047;-67
2022/02/09 17:36:01;;;;;;;15.48;5.80;;;14.80;52.20;;;;;;4975232;28;20054;-69
2022/02/09 17:58:09;;;;;;;15.27;5.88;;;14.50;56.60;;;;;;4959003;28;20031;-71
2022/02/09 18:00:36;;;;;;;13.43;5.30;;;14.40;57.50;;;;;;4957700;28;20112;-68
2022/02/09 18:06:24;;;;;;;17.65;6.10;;;14.30;57.80;;;;;;4970503;28;20035;-70
2022/02/09 18:09:21;;;;;;;14.90;5.82;;;14.30;57.10;;;;;;4964024;28;20027;-68
2022/02/09 18:12:16;;;;;;;17.20;5.57;;;14.20;57.00;;;;;;4960298;28;20034;-67
2022/02/09 18:43:21;;;;;;;16.17;6.07;;;13.80;58.30;;;;;;4977417;28;20073;-68
2022/02/09 18:45:59;;;;;;;20.33;7.45;;;13.80;58.90;;;;;;4977158;28;20033;-67
2022/02/09 18:57:48;;;;;;;13.55;5.53;;;13.80;58.70;;;;;;4956918;29;20094;-69
2022/02/09 19:01:15;;;;;;;11.68;5.50;;;13.80;58.70;;;;;;4954415;29;20441;-82
2022/02/09 19:03:27;;;;;;;17.63;5.78;;;13.80;58.20;;;;;;4953642;29;20031;-69
2022/02/09 19:06:03;;;;;;;18.30;8.20;;;13.80;58.10;;;;;;4959361;29;20031;-72
2022/02/09 19:17:18;;;;;;;20.95;8.02;;;13.70;58.50;;;;;;4960648;29;20050;-69
2022/02/09 19:31:42;;;;;;;29.60;9.02;;;13.50;59.90;;;;;;4957038;29;20046;-74
2022/02/09 19:49:36;;;;;;;23.38;9.88;;;13.30;61.30;;;;;;4954692;29;20031;-69
2022/02/09 19:57:03;;;;;;;22.88;9.00;;;13.20;62.20;;;;;;4960009;29;20087;-70
2022/02/09 19:59:35;;;;;;;22.77;8.93;;;13.10;62.50;;;;;;4944192;29;20038;-69
2022/02/09 20:02:24;;;;;;;22.65;9.30;;;13.10;62.60;;;;;;4959068;29;20059;-67
2022/02/09 20:05:08;;;;;;;19.08;9.60;;;13.10;63.40;;;;;;4940066;29;20050;-67
2022/02/09 20:07:52;;;;;;;22.73;9.88;;;13.00;62.70;;;;;;4957663;29;20059;-74
2022/02/09 20:10:18;;;;;;;26.10;10.07;;;13.00;63.10;;;;;;4939901;29;20421;-73
2022/02/09 20:12:44;;;;;;;26.25;10.90;;;13.00;63.20;;;;;;4955591;29;20058;-64
2022/02/09 20:15:16;;;;;;;26.63;10.90;;;13.00;63.60;;;;;;4955526;29;20023;-74
2022/02/09 20:17:43;;;;;;;35.07;13.57;;;13.00;63.70;;;;;;4955402;29;20469;-67
2022/02/09 20:20:12;;;;;;;30.65;13.05;;;13.00;64.00;;;;;;4954968;29;20102;-68
2022/02/09 20:22:38;;;;;;;26.98;13.80;;;12.90;64.20;;;;;;4955047;29;20031;-67
2022/02/09 20:25:06;;;;;;;27.88;13.40;;;12.90;64.50;;;;;;4956445;29;20031;-68
2022/02/09 20:27:35;;;;;;;31.15;12.75;;;12.90;64.90;;;;;;4954838;29;20038;-66
2022/02/09 20:30:04;;;;;;;26.63;12.30;;;12.80;64.60;;;;;;4938802;29;20032;-73
2022/02/09 20:32:39;;;;;;;32.60;12.77;;;12.80;65.10;;;;;;4954571;29;20043;-67
2022/02/09 20:35:08;;;;;;;29.80;13.15;;;12.80;65.40;;;;;;4954307;29;20030;-66
2022/02/09 20:37:40;;;;;;;27.23;10.90;;;12.80;65.80;;;;;;4954295;29;20488;-67
2022/02/09 20:40:16;;;;;;;22.67;11.38;;;12.70;66.00;;;;;;4954682;29;20042;-66
2022/02/09 20:42:50;;;;;;;25.15;12.43;;;12.70;66.30;;;;;;4950901;29;20031;-65
2022/02/09 20:45:25;;;;;;;23.02;10.95;;;12.70;66.50;;;;;;4932471;29;20028;-65
2022/02/09 20:47:58;;;;;;;25.17;10.88;;;12.70;66.60;;;;;;4954330;29;20062;-66
2022/02/09 20:50:26;;;;;;;25.85;10.80;;;12.60;66.90;;;;;;4968177;28;20047;-67
2022/02/09 20:52:53;;;;;;;25.10;11.40;;;12.50;67.20;;;;;;4974032;28;20571;-68
2022/02/09 20:55:21;;;;;;;21.13;10.93;;;12.50;67.60;;;;;;4973842;28;20101;-65
2022/02/09 20:57:47;;;;;;;21.30;10.35;;;12.40;68.10;;;;;;4974238;28;20427;-71
2022/02/09 21:00:21;;;;;;;25.90;10.57;;;12.40;68.10;;;;;;4973711;28;20139;-71
2022/02/09 21:02:57;;;;;;;20.67;9.80;;;12.40;68.30;;;;;;4973344;28;20026;-70
2022/02/09 21:08:10;;;;;;;23.58;9.85;;;12.40;69.90;;;;;;4974211;28;20150;-73
2022/02/09 21:13:03;;;;;;;22.73;10.27;;;12.30;68.40;;;;;;4974131;28;20050;-74
2022/02/09 21:15:54;;;;;;;20.83;10.65;;;12.20;71.30;;;;;;4956541;28;20038;-72
2022/02/09 21:18:52;;;;;;;28.75;11.95;;;12.20;69.40;;;;;;4974271;28;20027;-77
2022/02/09 21:26:36;;;;;;;23.40;10.05;;;12.20;69.30;;;;;;4974398;28;20122;-75
2022/02/09 21:43:39;;;;;;;;;;;12.00;70.00;;;;;;4976658;28;20044;-70
2022/02/09 21:56:31;;;;;;;;;;;11.80;71.00;;;;;;4978215;28;20396;-68
2022/02/09 21:59:35;;;;;;;21.10;8.93;;;11.80;73.30;;;;;;4961752;28;19930;-75
2022/02/09 22:30:01;;;;;;;27.05;11.27;;;11.50;72.30;;;;;;4958192;28;20391;-67
2022/02/09 22:32:03;;;;;;;20.33;11.20;;;11.50;72.80;;;;;;4942674;29;20047;-67
2022/02/09 22:45:37;;;;;;;19.75;11.10;;;11.50;72.20;;;;;;4957683;29;20046;-68
2022/02/09 22:50:55;;;;;;;26.75;11.73;;;11.50;72.40;;;;;;4973799;28;20548;-69
2022/02/09 22:56:06;;;;;;;23.63;10.73;;;11.60;72.60;;;;;;4984135;28;20096;-70
2022/02/09 22:58:33;;;;;;;25.08;11.30;;;11.60;72.80;;;;;;4996583;28;20128;-68
2022/02/09 23:01:31;;;;;;;28.10;11.98;;;11.60;72.70;;;;;;4979379;28;20026;-68
